sensor_id;sensor_type;location;lat;lon;timestamp;temperature;humidity
68387;DHT22;55338;43.062;25.624;2022-09-09T00:04:09;20.50;73.20
68387;DHT22;55338;43.062;25.624;2022-09-09T00:09:19;20.30;74.50
68387;DHT22;55338;43.062;25.624;2022-09-09T00:11:52;20.30;75.00
68387;DHT22;55338;43.062;25.624;2022-09-09T00:17:08;20.10;75.50
68387;DHT22;55338;43.062;25.624;2022-09-09T00:22:21;20.00;76.50
68387;DHT22;55338;43.062;25.624;2022-09-09T00:24:53;19.90;76.50
68387;DHT22;55338;43.062;25.624;2022-09-09T00:30:17;19.80;77.10
68387;DHT22;55338;43.062;25.624;2022-09-09T00:32:49;19.70;77.00
68387;DHT22;55338;43.062;25.624;2022-09-09T00:35:33;19.70;77.60
68387;DHT22;55338;43.062;25.624;2022-09-09T00:38:15;19.60;78.10
68387;DHT22;55338;43.062;25.624;2022-09-09T00:40:52;19.60;77.00
68387;DHT22;55338;43.062;25.624;2022-09-09T00:43:46;19.60;76.00
68387;DHT22;55338;43.062;25.624;2022-09-09T00:47:03;19.60;76.40
68387;DHT22;55338;43.062;25.624;2022-09-09T00:55:26;19.70;76.40
68387;DHT22;55338;43.062;25.624;2022-09-09T00:57:53;19.70;76.40
68387;DHT22;55338;43.062;25.624;2022-09-09T01:00:23;19.70;77.10
68387;DHT22;55338;43.062;25.624;2022-09-09T01:05:54;19.60;77.20
68387;DHT22;55338;43.062;25.624;2022-09-09T01:11:13;19.50;77.90
68387;DHT22;55338;43.062;25.624;2022-09-09T01:13:42;19.40;78.40
68387;DHT22;55338;43.062;25.624;2022-09-09T01:16:11;19.40;78.70
68387;DHT22;55338;43.062;25.624;2022-09-09T01:18:44;19.40;78.50
68387;DHT22;55338;43.062;25.624;2022-09-09T01:21:32;19.30;78.50
68387;DHT22;55338;43.062;25.624;2022-09-09T01:24:20;19.30;79.10
68387;DHT22;55338;43.062;25.624;2022-09-09T01:26:50;19.20;79.60
68387;DHT22;55338;43.062;25.624;2022-09-09T01:29:19;19.20;79.40
68387;DHT22;55338;43.062;25.624;2022-09-09T01:34:22;19.10;78.60
68387;DHT22;55338;43.062;25.624;2022-09-09T01:39:26;19.20;78.90
68387;DHT22;55338;43.062;25.624;2022-09-09T01:41:53;19.10;79.50
68387;DHT22;55338;43.062;25.624;2022-09-09T01:44:19;19.10;78.40
68387;DHT22;55338;43.062;25.624;2022-09-09T01:46:45;19.10;79.20
68387;DHT22;55338;43.062;25.624;2022-09-09T01:49:11;19.20;77.60
68387;DHT22;55338;43.062;25.624;2022-09-09T01:51:38;19.20;77.70
68387;DHT22;55338;43.062;25.624;2022-09-09T01:54:07;19.30;77.50
68387;DHT22;55338;43.062;25.624;2022-09-09T02:04:55;19.30;78.60
68387;DHT22;55338;43.062;25.624;2022-09-09T02:07:43;19.20;79.80
68387;DHT22;55338;43.062;25.624;2022-09-09T02:10:42;19.10;80.30
68387;DHT22;55338;43.062;25.624;2022-09-09T02:13:13;19.10;80.20
68387;DHT22;55338;43.062;25.624;2022-09-09T02:15:43;19.00;79.80
68387;DHT22;55338;43.062;25.624;2022-09-09T02:18:12;19.10;80.40
68387;DHT22;55338;43.062;25.624;2022-09-09T02:20:39;19.00;79.60
68387;DHT22;55338;43.062;25.624;2022-09-09T02:23:07;19.00;79.70
68387;DHT22;55338;43.062;25.624;2022-09-09T02:25:36;18.90;80.20
68387;DHT22;55338;43.062;25.624;2022-09-09T02:28:05;18.90;80.10
68387;DHT22;55338;43.062;25.624;2022-09-09T02:30:34;18.80;80.40
68387;DHT22;55338;43.062;25.624;2022-09-09T02:33:02;18.80;80.50
68387;DHT22;55338;43.062;25.624;2022-09-09T02:35:31;18.70;81.00
68387;DHT22;55338;43.062;25.624;2022-09-09T02:38:02;18.70;81.60
68387;DHT22;55338;43.062;25.624;2022-09-09T02:40:29;18.60;82.80
68387;DHT22;55338;43.062;25.624;2022-09-09T02:42:55;18.60;82.90
68387;DHT22;55338;43.062;25.624;2022-09-09T02:45:26;18.60;82.20
68387;DHT22;55338;43.062;25.624;2022-09-09T02:48:09;18.60;82.70
68387;DHT22;55338;43.062;25.624;2022-09-09T02:50:50;18.50;82.60
68387;DHT22;55338;43.062;25.624;2022-09-09T02:53:28;18.50;82.50
68387;DHT22;55338;43.062;25.624;2022-09-09T02:56:08;18.40;82.50
68387;DHT22;55338;43.062;25.624;2022-09-09T02:58:35;18.40;82.70
68387;DHT22;55338;43.062;25.624;2022-09-09T03:01:01;18.40;83.60
68387;DHT22;55338;43.062;25.624;2022-09-09T03:03:28;18.30;84.10
68387;DHT22;55338;43.062;25.624;2022-09-09T03:05:54;18.30;84.20
68387;DHT22;55338;43.062;25.624;2022-09-09T03:08:20;18.30;83.80
68387;DHT22;55338;43.062;25.624;2022-09-09T03:10:46;18.30;83.80
68387;DHT22;55338;43.062;25.624;2022-09-09T03:13:11;18.20;84.40
68387;DHT22;55338;43.062;25.624;2022-09-09T03:15:40;18.20;84.90
68387;DHT22;55338;43.062;25.624;2022-09-09T03:18:06;18.10;85.00
68387;DHT22;55338;43.062;25.624;2022-09-09T03:20:32;18.10;84.80
68387;DHT22;55338;43.062;25.624;2022-09-09T03:22:59;18.10;84.40
68387;DHT22;55338;43.062;25.624;2022-09-09T03:25:25;18.10;84.30
68387;DHT22;55338;43.062;25.624;2022-09-09T03:27:52;18.00;84.30
68387;DHT22;55338;43.062;25.624;2022-09-09T03:30:27;18.00;84.50
68387;DHT22;55338;43.062;25.624;2022-09-09T03:32:53;18.00;84.90
68387;DHT22;55338;43.062;25.624;2022-09-09T03:35:20;18.00;84.90
68387;DHT22;55338;43.062;25.624;2022-09-09T03:37:46;18.00;85.10
68387;DHT22;55338;43.062;25.624;2022-09-09T03:40:12;18.00;85.40
68387;DHT22;55338;43.062;25.624;2022-09-09T03:42:38;18.00;86.30
68387;DHT22;55338;43.062;25.624;2022-09-09T03:45:09;17.90;86.00
68387;DHT22;55338;43.062;25.624;2022-09-09T03:47:36;17.90;86.00
68387;DHT22;55338;43.062;25.624;2022-09-09T03:50:02;17.90;85.90
68387;DHT22;55338;43.062;25.624;2022-09-09T03:52:29;17.90;86.20
68387;DHT22;55338;43.062;25.624;2022-09-09T03:54:56;17.90;86.40
68387;DHT22;55338;43.062;25.624;2022-09-09T03:57:22;17.80;86.30
68387;DHT22;55338;43.062;25.624;2022-09-09T03:59:48;17.80;86.90
68387;DHT22;55338;43.062;25.624;2022-09-09T04:02:13;17.80;87.10
68387;DHT22;55338;43.062;25.624;2022-09-09T04:04:39;17.70;87.00
68387;DHT22;55338;43.062;25.624;2022-09-09T04:07:05;17.70;86.90
68387;DHT22;55338;43.062;25.624;2022-09-09T04:09:32;17.70;86.50
68387;DHT22;55338;43.062;25.624;2022-09-09T04:11:58;17.70;86.50
68387;DHT22;55338;43.062;25.624;2022-09-09T04:14:24;17.80;86.20
68387;DHT22;55338;43.062;25.624;2022-09-09T04:16:53;17.80;86.20
68387;DHT22;55338;43.062;25.624;2022-09-09T04:19:19;17.80;86.50
68387;DHT22;55338;43.062;25.624;2022-09-09T04:21:44;17.90;86.30
68387;DHT22;55338;43.062;25.624;2022-09-09T04:24:10;17.90;86.40
68387;DHT22;55338;43.062;25.624;2022-09-09T04:26:36;18.00;86.30
68387;DHT22;55338;43.062;25.624;2022-09-09T04:29:03;18.00;86.10
68387;DHT22;55338;43.062;25.624;2022-09-09T04:31:29;18.10;86.00
68387;DHT22;55338;43.062;25.624;2022-09-09T04:33:55;18.10;86.60
68387;DHT22;55338;43.062;25.624;2022-09-09T04:36:21;18.20;86.30
68387;DHT22;55338;43.062;25.624;2022-09-09T04:38:47;18.30;86.20
68387;DHT22;55338;43.062;25.624;2022-09-09T04:41:14;18.40;86.30
68387;DHT22;55338;43.062;25.624;2022-09-09T04:43:42;18.50;86.20
68387;DHT22;55338;43.062;25.624;2022-09-09T04:46:08;18.70;85.70
68387;DHT22;55338;43.062;25.624;2022-09-09T04:48:34;18.70;84.60
68387;DHT22;55338;43.062;25.624;2022-09-09T04:51:02;18.90;84.20
68387;DHT22;55338;43.062;25.624;2022-09-09T04:53:29;19.00;83.00
68387;DHT22;55338;43.062;25.624;2022-09-09T04:58:28;19.30;81.90
68387;DHT22;55338;43.062;25.624;2022-09-09T05:00:54;19.40;82.10
68387;DHT22;55338;43.062;25.624;2022-09-09T05:03:19;19.50;81.30
68387;DHT22;55338;43.062;25.624;2022-09-09T05:05:45;19.60;80.70
68387;DHT22;55338;43.062;25.624;2022-09-09T05:08:11;19.70;80.80
68387;DHT22;55338;43.062;25.624;2022-09-09T05:10:38;19.90;80.50
68387;DHT22;55338;43.062;25.624;2022-09-09T05:13:05;20.00;80.20
68387;DHT22;55338;43.062;25.624;2022-09-09T05:15:32;20.10;79.90
68387;DHT22;55338;43.062;25.624;2022-09-09T05:17:58;20.30;79.20
68387;DHT22;55338;43.062;25.624;2022-09-09T05:20:26;20.50;78.80
68387;DHT22;55338;43.062;25.624;2022-09-09T05:22:55;20.70;77.60
68387;DHT22;55338;43.062;25.624;2022-09-09T05:25:22;20.90;76.20
68387;DHT22;55338;43.062;25.624;2022-09-09T05:27:48;21.10;76.40
68387;DHT22;55338;43.062;25.624;2022-09-09T05:30:15;21.30;74.10
68387;DHT22;55338;43.062;25.624;2022-09-09T05:32:41;21.50;73.00
68387;DHT22;55338;43.062;25.624;2022-09-09T05:35:06;21.80;72.40
68387;DHT22;55338;43.062;25.624;2022-09-09T05:37:32;22.00;72.40
68387;DHT22;55338;43.062;25.624;2022-09-09T05:39:58;22.30;70.80
68387;DHT22;55338;43.062;25.624;2022-09-09T05:42:24;22.50;69.60
68387;DHT22;55338;43.062;25.624;2022-09-09T05:44:50;22.80;67.50
68387;DHT22;55338;43.062;25.624;2022-09-09T05:47:16;23.10;66.80
68387;DHT22;55338;43.062;25.624;2022-09-09T05:49:43;23.40;66.00
68387;DHT22;55338;43.062;25.624;2022-09-09T05:52:09;23.60;65.10
68387;DHT22;55338;43.062;25.624;2022-09-09T05:54:35;23.80;63.00
68387;DHT22;55338;43.062;25.624;2022-09-09T05:57:03;24.00;63.20
68387;DHT22;55338;43.062;25.624;2022-09-09T05:59:29;24.30;61.70
68387;DHT22;55338;43.062;25.624;2022-09-09T06:01:54;24.70;60.10
68387;DHT22;55338;43.062;25.624;2022-09-09T06:04:20;25.10;58.60
68387;DHT22;55338;43.062;25.624;2022-09-09T06:06:47;25.50;57.10
68387;DHT22;55338;43.062;25.624;2022-09-09T06:09:14;26.00;54.40
68387;DHT22;55338;43.062;25.624;2022-09-09T06:11:41;26.40;52.30
68387;DHT22;55338;43.062;25.624;2022-09-09T06:14:07;26.80;51.10
68387;DHT22;55338;43.062;25.624;2022-09-09T06:16:34;27.10;50.40
68387;DHT22;55338;43.062;25.624;2022-09-09T06:19:01;27.50;49.50
68387;DHT22;55338;43.062;25.624;2022-09-09T06:21:33;27.80;48.10
68387;DHT22;55338;43.062;25.624;2022-09-09T06:24:00;27.50;47.50
68387;DHT22;55338;43.062;25.624;2022-09-09T06:26:34;28.30;47.30
68387;DHT22;55338;43.062;25.624;2022-09-09T06:29:00;28.60;45.20
68387;DHT22;55338;43.062;25.624;2022-09-09T06:31:28;28.80;44.20
68387;DHT22;55338;43.062;25.624;2022-09-09T06:33:59;29.10;43.80
68387;DHT22;55338;43.062;25.624;2022-09-09T06:36:31;29.40;43.30
68387;DHT22;55338;43.062;25.624;2022-09-09T06:38:58;29.60;43.20
68387;DHT22;55338;43.062;25.624;2022-09-09T06:41:29;30.00;42.30
68387;DHT22;55338;43.062;25.624;2022-09-09T06:43:55;30.10;40.70
68387;DHT22;55338;43.062;25.624;2022-09-09T06:46:23;30.50;39.70
68387;DHT22;55338;43.062;25.624;2022-09-09T06:48:49;30.90;39.80
68387;DHT22;55338;43.062;25.624;2022-09-09T06:51:19;31.20;38.80
68387;DHT22;55338;43.062;25.624;2022-09-09T06:53:47;31.40;37.80
68387;DHT22;55338;43.062;25.624;2022-09-09T06:56:31;31.60;37.40
68387;DHT22;55338;43.062;25.624;2022-09-09T06:58:59;32.00;37.00
68387;DHT22;55338;43.062;25.624;2022-09-09T07:01:31;32.40;36.10
68387;DHT22;55338;43.062;25.624;2022-09-09T07:03:59;32.40;35.20
68387;DHT22;55338;43.062;25.624;2022-09-09T07:06:27;32.30;35.00
68387;DHT22;55338;43.062;25.624;2022-09-09T07:08:58;32.40;34.80
68387;DHT22;55338;43.062;25.624;2022-09-09T07:11:27;32.60;34.20
68387;DHT22;55338;43.062;25.624;2022-09-09T07:13:54;33.10;36.20
68387;DHT22;55338;43.062;25.624;2022-09-09T07:16:22;33.50;34.30
68387;DHT22;55338;43.062;25.624;2022-09-09T07:18:50;33.70;32.60
68387;DHT22;55338;43.062;25.624;2022-09-09T07:21:16;34.10;31.50
68387;DHT22;55338;43.062;25.624;2022-09-09T07:23:43;34.50;31.10
68387;DHT22;55338;43.062;25.624;2022-09-09T07:26:16;34.80;29.70
68387;DHT22;55338;43.062;25.624;2022-09-09T07:28:42;35.00;30.80
68387;DHT22;55338;43.062;25.624;2022-09-09T07:31:26;35.00;30.20
68387;DHT22;55338;43.062;25.624;2022-09-09T07:33:52;34.70;30.20
68387;DHT22;55338;43.062;25.624;2022-09-09T07:36:20;34.70;30.30
68387;DHT22;55338;43.062;25.624;2022-09-09T07:38:57;34.90;29.30
68387;DHT22;55338;43.062;25.624;2022-09-09T07:43:54;35.00;30.90
68387;DHT22;55338;43.062;25.624;2022-09-09T07:46:22;35.50;28.40
68387;DHT22;55338;43.062;25.624;2022-09-09T07:48:50;35.70;28.00
68387;DHT22;55338;43.062;25.624;2022-09-09T07:51:30;36.10;28.10
68387;DHT22;55338;43.062;25.624;2022-09-09T07:53:59;36.50;26.80
68387;DHT22;55338;43.062;25.624;2022-09-09T07:56:28;36.70;27.30
68387;DHT22;55338;43.062;25.624;2022-09-09T07:58:55;36.30;27.00
68387;DHT22;55338;43.062;25.624;2022-09-09T08:04:02;35.90;27.20
68387;DHT22;55338;43.062;25.624;2022-09-09T08:06:31;35.00;27.80
68387;DHT22;55338;43.062;25.624;2022-09-09T08:08:59;35.00;28.50
68387;DHT22;55338;43.062;25.624;2022-09-09T08:11:26;35.40;27.10
68387;DHT22;55338;43.062;25.624;2022-09-09T08:13:52;35.60;26.40
68387;DHT22;55338;43.062;25.624;2022-09-09T08:16:24;35.60;26.30
68387;DHT22;55338;43.062;25.624;2022-09-09T08:18:51;35.60;26.40
68387;DHT22;55338;43.062;25.624;2022-09-09T08:21:23;35.80;26.10
68387;DHT22;55338;43.062;25.624;2022-09-09T08:23:51;35.90;25.40
68387;DHT22;55338;43.062;25.624;2022-09-09T08:26:20;35.90;25.90
68387;DHT22;55338;43.062;25.624;2022-09-09T08:28:52;35.50;26.70
68387;DHT22;55338;43.062;25.624;2022-09-09T08:31:26;35.60;26.90
68387;DHT22;55338;43.062;25.624;2022-09-09T08:33:56;34.90;27.50
68387;DHT22;55338;43.062;25.624;2022-09-09T08:36:27;35.90;26.80
68387;DHT22;55338;43.062;25.624;2022-09-09T08:38:55;36.10;25.80
68387;DHT22;55338;43.062;25.624;2022-09-09T08:47:38;36.70;25.10
68387;DHT22;55338;43.062;25.624;2022-09-09T08:50:35;36.50;25.60
68387;DHT22;55338;43.062;25.624;2022-09-09T08:53:02;36.90;24.40
68387;DHT22;55338;43.062;25.624;2022-09-09T08:55:49;37.00;25.40
68387;DHT22;55338;43.062;25.624;2022-09-09T08:58:20;36.90;25.10
68387;DHT22;55338;43.062;25.624;2022-09-09T09:01:32;37.10;24.80
68387;DHT22;55338;43.062;25.624;2022-09-09T09:07:13;37.20;24.70
68387;DHT22;55338;43.062;25.624;2022-09-09T09:12:19;37.40;24.10
68387;DHT22;55338;43.062;25.624;2022-09-09T09:14:47;36.90;24.10
68387;DHT22;55338;43.062;25.624;2022-09-09T09:17:14;37.20;24.80
68387;DHT22;55338;43.062;25.624;2022-09-09T09:19:42;37.70;24.20
68387;DHT22;55338;43.062;25.624;2022-09-09T09:24:42;38.30;23.20
68387;DHT22;55338;43.062;25.624;2022-09-09T09:27:57;38.10;23.60
68387;DHT22;55338;43.062;25.624;2022-09-09T09:30:20;38.10;23.10
68387;DHT22;55338;43.062;25.624;2022-09-09T09:32:59;38.10;22.80
68387;DHT22;55338;43.062;25.624;2022-09-09T09:35:26;38.20;22.90
68387;DHT22;55338;43.062;25.624;2022-09-09T09:37:52;37.90;23.10
68387;DHT22;55338;43.062;25.624;2022-09-09T09:40:20;37.50;24.30
68387;DHT22;55338;43.062;25.624;2022-09-09T09:43:02;37.70;24.20
68387;DHT22;55338;43.062;25.624;2022-09-09T09:45:43;38.30;23.10
68387;DHT22;55338;43.062;25.624;2022-09-09T09:48:12;38.40;23.00
68387;DHT22;55338;43.062;25.624;2022-09-09T09:51:10;38.20;23.20
68387;DHT22;55338;43.062;25.624;2022-09-09T09:53:39;38.30;23.30
68387;DHT22;55338;43.062;25.624;2022-09-09T09:56:08;38.10;23.70
68387;DHT22;55338;43.062;25.624;2022-09-09T09:58:50;38.30;24.20
68387;DHT22;55338;43.062;25.624;2022-09-09T10:04:15;38.80;22.00
68387;DHT22;55338;43.062;25.624;2022-09-09T10:06:41;38.70;22.50
68387;DHT22;55338;43.062;25.624;2022-09-09T10:17:23;38.30;24.10
68387;DHT22;55338;43.062;25.624;2022-09-09T10:22:28;38.70;22.90
68387;DHT22;55338;43.062;25.624;2022-09-09T10:28:29;38.80;22.40
68387;DHT22;55338;43.062;25.624;2022-09-09T10:31:11;38.60;23.90
68387;DHT22;55338;43.062;25.624;2022-09-09T10:36:51;38.80;23.00
68387;DHT22;55338;43.062;25.624;2022-09-09T10:47:11;39.00;22.50
68387;DHT22;55338;43.062;25.624;2022-09-09T10:55:18;39.40;22.20
68387;DHT22;55338;43.062;25.624;2022-09-09T10:57:50;39.40;22.30
68387;DHT22;55338;43.062;25.624;2022-09-09T11:00:37;39.50;21.70
68387;DHT22;55338;43.062;25.624;2022-09-09T11:03:05;39.50;22.10
68387;DHT22;55338;43.062;25.624;2022-09-09T11:05:44;39.20;22.50
68387;DHT22;55338;43.062;25.624;2022-09-09T11:08:15;39.40;22.50
68387;DHT22;55338;43.062;25.624;2022-09-09T11:16:33;40.00;21.60
68387;DHT22;55338;43.062;25.624;2022-09-09T11:21:50;40.60;20.10
68387;DHT22;55338;43.062;25.624;2022-09-09T11:32:27;39.50;21.50
68387;DHT22;55338;43.062;25.624;2022-09-09T11:35:29;39.10;22.60
68387;DHT22;55338;43.062;25.624;2022-09-09T11:38:20;39.00;22.80
68387;DHT22;55338;43.062;25.624;2022-09-09T11:41:03;39.00;22.70
68387;DHT22;55338;43.062;25.624;2022-09-09T11:43:30;39.20;22.20
68387;DHT22;55338;43.062;25.624;2022-09-09T11:46:00;39.10;22.50
68387;DHT22;55338;43.062;25.624;2022-09-09T11:48:39;38.30;23.40
68387;DHT22;55338;43.062;25.624;2022-09-09T11:53:56;37.10;25.50
68387;DHT22;55338;43.062;25.624;2022-09-09T11:59:29;37.80;25.50
68387;DHT22;55338;43.062;25.624;2022-09-09T12:02:13;38.30;24.40
68387;DHT22;55338;43.062;25.624;2022-09-09T12:05:07;38.90;23.40
68387;DHT22;55338;43.062;25.624;2022-09-09T12:07:41;39.40;22.70
68387;DHT22;55338;43.062;25.624;2022-09-09T12:12:35;39.60;21.70
68387;DHT22;55338;43.062;25.624;2022-09-09T12:17:48;40.30;20.90
68387;DHT22;55338;43.062;25.624;2022-09-09T12:20:23;40.40;21.30
68387;DHT22;55338;43.062;25.624;2022-09-09T12:23:11;40.30;21.10
68387;DHT22;55338;43.062;25.624;2022-09-09T12:26:00;40.10;22.10
68387;DHT22;55338;43.062;25.624;2022-09-09T12:33:39;40.60;21.40
68387;DHT22;55338;43.062;25.624;2022-09-09T12:36:17;41.00;19.40
68387;DHT22;55338;43.062;25.624;2022-09-09T12:38:45;41.00;20.00
68387;DHT22;55338;43.062;25.624;2022-09-09T12:41:27;41.30;20.00
68387;DHT22;55338;43.062;25.624;2022-09-09T12:44:08;40.20;20.90
68387;DHT22;55338;43.062;25.624;2022-09-09T12:46:38;39.10;22.60
68387;DHT22;55338;43.062;25.624;2022-09-09T12:49:20;38.70;22.90
68387;DHT22;55338;43.062;25.624;2022-09-09T12:51:49;38.20;23.80
68387;DHT22;55338;43.062;25.624;2022-09-09T12:54:15;37.70;24.30
68387;DHT22;55338;43.062;25.624;2022-09-09T12:56:46;37.10;25.30
68387;DHT22;55338;43.062;25.624;2022-09-09T12:59:26;36.80;26.20
68387;DHT22;55338;43.062;25.624;2022-09-09T13:01:59;36.40;27.20
68387;DHT22;55338;43.062;25.624;2022-09-09T13:04:25;35.90;28.00
68387;DHT22;55338;43.062;25.624;2022-09-09T13:06:51;35.40;28.70
68387;DHT22;55338;43.062;25.624;2022-09-09T13:09:18;35.30;29.30
68387;DHT22;55338;43.062;25.624;2022-09-09T13:11:52;35.00;30.40
68387;DHT22;55338;43.062;25.624;2022-09-09T13:14:33;34.80;30.60
68387;DHT22;55338;43.062;25.624;2022-09-09T13:17:04;34.60;30.70
68387;DHT22;55338;43.062;25.624;2022-09-09T13:19:34;34.40;31.10
68387;DHT22;55338;43.062;25.624;2022-09-09T13:22:18;34.40;31.50
68387;DHT22;55338;43.062;25.624;2022-09-09T13:24:45;34.30;31.70
68387;DHT22;55338;43.062;25.624;2022-09-09T13:27:28;34.20;32.20
68387;DHT22;55338;43.062;25.624;2022-09-09T13:29:55;34.00;32.80
68387;DHT22;55338;43.062;25.624;2022-09-09T13:32:23;33.80;32.90
68387;DHT22;55338;43.062;25.624;2022-09-09T13:34:58;33.60;33.40
68387;DHT22;55338;43.062;25.624;2022-09-09T13:37:39;33.50;33.40
68387;DHT22;55338;43.062;25.624;2022-09-09T13:40:13;33.40;34.00
68387;DHT22;55338;43.062;25.624;2022-09-09T13:42:42;33.30;34.60
68387;DHT22;55338;43.062;25.624;2022-09-09T13:45:19;33.10;35.00
68387;DHT22;55338;43.062;25.624;2022-09-09T13:47:46;33.00;35.30
68387;DHT22;55338;43.062;25.624;2022-09-09T13:52:45;32.80;35.20
68387;DHT22;55338;43.062;25.624;2022-09-09T13:55:12;32.80;35.60
68387;DHT22;55338;43.062;25.624;2022-09-09T13:57:38;32.70;35.80
68387;DHT22;55338;43.062;25.624;2022-09-09T14:00:05;32.70;36.00
68387;DHT22;55338;43.062;25.624;2022-09-09T14:02:32;32.70;36.50
68387;DHT22;55338;43.062;25.624;2022-09-09T14:04:58;32.70;36.60
68387;DHT22;55338;43.062;25.624;2022-09-09T14:07:24;32.80;35.90
68387;DHT22;55338;43.062;25.624;2022-09-09T14:09:50;32.90;36.40
68387;DHT22;55338;43.062;25.624;2022-09-09T14:12:17;33.30;35.90
68387;DHT22;55338;43.062;25.624;2022-09-09T14:14:43;33.60;34.90
68387;DHT22;55338;43.062;25.624;2022-09-09T14:17:09;33.80;34.90
68387;DHT22;55338;43.062;25.624;2022-09-09T14:19:35;33.70;34.60
68387;DHT22;55338;43.062;25.624;2022-09-09T14:22:02;33.30;35.60
68387;DHT22;55338;43.062;25.624;2022-09-09T14:24:28;33.30;36.00
68387;DHT22;55338;43.062;25.624;2022-09-09T14:26:54;33.20;35.90
68387;DHT22;55338;43.062;25.624;2022-09-09T14:29:20;33.20;36.20
68387;DHT22;55338;43.062;25.624;2022-09-09T14:31:46;33.00;36.60
68387;DHT22;55338;43.062;25.624;2022-09-09T14:34:12;33.00;36.60
68387;DHT22;55338;43.062;25.624;2022-09-09T14:36:40;32.70;36.60
68387;DHT22;55338;43.062;25.624;2022-09-09T14:39:07;32.60;37.10
68387;DHT22;55338;43.062;25.624;2022-09-09T14:41:33;32.40;37.40
68387;DHT22;55338;43.062;25.624;2022-09-09T14:43:59;32.40;37.70
68387;DHT22;55338;43.062;25.624;2022-09-09T14:46:25;32.20;41.20
68387;DHT22;55338;43.062;25.624;2022-09-09T14:48:52;32.00;41.90
68387;DHT22;55338;43.062;25.624;2022-09-09T14:51:23;31.80;41.50
68387;DHT22;55338;43.062;25.624;2022-09-09T14:53:56;31.80;42.30
68387;DHT22;55338;43.062;25.624;2022-09-09T14:56:25;31.70;43.10
68387;DHT22;55338;43.062;25.624;2022-09-09T14:58:54;31.60;40.60
68387;DHT22;55338;43.062;25.624;2022-09-09T15:01:21;31.50;41.40
68387;DHT22;55338;43.062;25.624;2022-09-09T15:03:52;31.40;41.80
68387;DHT22;55338;43.062;25.624;2022-09-09T15:06:19;31.20;42.30
68387;DHT22;55338;43.062;25.624;2022-09-09T15:08:46;31.00;45.20
68387;DHT22;55338;43.062;25.624;2022-09-09T15:11:13;31.00;44.60
68387;DHT22;55338;43.062;25.624;2022-09-09T15:13:41;31.00;42.50
68387;DHT22;55338;43.062;25.624;2022-09-09T15:16:14;31.00;42.90
68387;DHT22;55338;43.062;25.624;2022-09-09T15:18:41;31.00;43.10
68387;DHT22;55338;43.062;25.624;2022-09-09T15:21:15;31.00;42.90
68387;DHT22;55338;43.062;25.624;2022-09-09T15:23:42;31.00;43.80
68387;DHT22;55338;43.062;25.624;2022-09-09T15:26:09;31.00;43.10
68387;DHT22;55338;43.062;25.624;2022-09-09T15:28:37;31.00;44.20
68387;DHT22;55338;43.062;25.624;2022-09-09T15:33:37;30.80;48.50
68387;DHT22;55338;43.062;25.624;2022-09-09T15:36:27;30.60;47.60
68387;DHT22;55338;43.062;25.624;2022-09-09T15:38:54;30.50;49.20
68387;DHT22;55338;43.062;25.624;2022-09-09T15:41:21;30.40;49.70
68387;DHT22;55338;43.062;25.624;2022-09-09T15:43:49;30.40;50.20
68387;DHT22;55338;43.062;25.624;2022-09-09T15:46:36;30.40;51.40
68387;DHT22;55338;43.062;25.624;2022-09-09T15:49:11;30.30;51.20
68387;DHT22;55338;43.062;25.624;2022-09-09T15:51:41;30.20;50.60
68387;DHT22;55338;43.062;25.624;2022-09-09T15:54:09;30.10;50.90
68387;DHT22;55338;43.062;25.624;2022-09-09T15:56:35;30.10;51.50
68387;DHT22;55338;43.062;25.624;2022-09-09T15:59:02;30.00;51.20
68387;DHT22;55338;43.062;25.624;2022-09-09T16:01:29;29.90;50.50
68387;DHT22;55338;43.062;25.624;2022-09-09T16:03:56;29.90;53.10
68387;DHT22;55338;43.062;25.624;2022-09-09T16:06:23;29.70;53.60
68387;DHT22;55338;43.062;25.624;2022-09-09T16:08:51;29.60;54.20
68387;DHT22;55338;43.062;25.624;2022-09-09T16:11:23;29.50;55.10
68387;DHT22;55338;43.062;25.624;2022-09-09T16:13:51;29.40;55.50
68387;DHT22;55338;43.062;25.624;2022-09-09T16:16:19;29.40;55.80
68387;DHT22;55338;43.062;25.624;2022-09-09T16:18:49;29.20;56.80
68387;DHT22;55338;43.062;25.624;2022-09-09T16:21:18;29.10;57.60
68387;DHT22;55338;43.062;25.624;2022-09-09T16:23:44;28.90;57.40
68387;DHT22;55338;43.062;25.624;2022-09-09T16:26:14;28.70;57.20
68387;DHT22;55338;43.062;25.624;2022-09-09T16:28:41;28.70;58.50
68387;DHT22;55338;43.062;25.624;2022-09-09T16:31:08;28.50;59.20
68387;DHT22;55338;43.062;25.624;2022-09-09T16:33:36;28.50;59.60
68387;DHT22;55338;43.062;25.624;2022-09-09T16:36:06;28.40;59.90
68387;DHT22;55338;43.062;25.624;2022-09-09T16:38:32;28.30;60.60
68387;DHT22;55338;43.062;25.624;2022-09-09T16:40:59;28.30;61.10
68387;DHT22;55338;43.062;25.624;2022-09-09T16:43:26;28.20;60.80
68387;DHT22;55338;43.062;25.624;2022-09-09T16:45:51;28.10;62.30
68387;DHT22;55338;43.062;25.624;2022-09-09T16:48:17;28.00;62.90
68387;DHT22;55338;43.062;25.624;2022-09-09T16:50:43;27.90;63.20
68387;DHT22;55338;43.062;25.624;2022-09-09T16:53:10;27.80;63.10
68387;DHT22;55338;43.062;25.624;2022-09-09T16:55:42;27.70;63.00
68387;DHT22;55338;43.062;25.624;2022-09-09T16:58:10;27.70;63.20
68387;DHT22;55338;43.062;25.624;2022-09-09T17:00:36;27.60;62.30
68387;DHT22;55338;43.062;25.624;2022-09-09T17:03:02;27.60;63.70
68387;DHT22;55338;43.062;25.624;2022-09-09T17:05:28;27.50;65.00
68387;DHT22;55338;43.062;25.624;2022-09-09T17:07:55;27.40;65.40
68387;DHT22;55338;43.062;25.624;2022-09-09T17:10:24;27.30;66.00
68387;DHT22;55338;43.062;25.624;2022-09-09T17:12:50;27.30;64.50
68387;DHT22;55338;43.062;25.624;2022-09-09T17:15:17;27.30;64.40
68387;DHT22;55338;43.062;25.624;2022-09-09T17:17:44;27.20;66.70
68387;DHT22;55338;43.062;25.624;2022-09-09T17:20:10;27.20;66.10
68387;DHT22;55338;43.062;25.624;2022-09-09T17:22:36;27.20;66.20
68387;DHT22;55338;43.062;25.624;2022-09-09T17:25:02;27.10;66.30
68387;DHT22;55338;43.062;25.624;2022-09-09T17:27:29;27.10;66.80
68387;DHT22;55338;43.062;25.624;2022-09-09T17:29:57;27.00;68.10
68387;DHT22;55338;43.062;25.624;2022-09-09T17:32:24;26.90;67.10
68387;DHT22;55338;43.062;25.624;2022-09-09T17:34:49;26.80;66.80
68387;DHT22;55338;43.062;25.624;2022-09-09T17:37:15;26.70;67.00
68387;DHT22;55338;43.062;25.624;2022-09-09T17:39:41;26.70;66.70
68387;DHT22;55338;43.062;25.624;2022-09-09T17:42:07;26.60;68.30
68387;DHT22;55338;43.062;25.624;2022-09-09T17:44:33;26.50;69.80
68387;DHT22;55338;43.062;25.624;2022-09-09T17:46:59;26.30;70.90